sensor_id;sensor_type;location;lat;lon;timestamp;pressure;altitude;pressure_sealevel;temperature;humidity
30967;BME280;17649;51.836;8.330;2024-02-14T00:01:29;100987.22;;;9.19;100.00
30967;BME280;17649;51.836;8.330;2024-02-14T00:04:29;100992.03;;;8.88;100.00
30967;BME280;17649;51.836;8.330;2024-02-14T00:07:30;100975.13;;;9.01;100.00
30967;BME280;17649;51.836;8.330;2024-02-14T00:10:30;100972.69;;;8.98;100.00
30967;BME280;17649;51.836;8.330;2024-02-14T00:13:31;100970.34;;;9.12;100.00
30967;BME280;17649;51.836;8.330;2024-02-14T00:16:34;100966.72;;;9.16;100.00
30967;BME280;17649;51.836;8.330;2024-02-14T00:19:35;100962.59;;;9.12;100.00
30967;BME280;17649;51.836;8.330;2024-02-14T00:22:36;100964.47;;;8.88;100.00
30967;BME280;17649;51.836;8.330;2024-02-14T00:25:36;100960.41;;;9.03;100.00
30967;BME280;17649;51.836;8.330;2024-02-14T00:28:37;100960.84;;;8.92;100.00
30967;BME280;17649;51.836;8.330;2024-02-14T00:31:37;100956.34;;;8.98;100.00
30967;BME280;17649;51.836;8.330;2024-02-14T00:34:38;100956.00;;;9.05;100.00
30967;BME280;17649;51.836;8.330;2024-02-14T00:37:38;100944.50;;;8.93;100.00
30967;BME280;17649;51.836;8.330;2024-02-14T00:40:38;100946.25;;;8.93;100.00
30967;BME280;17649;51.836;8.330;2024-02-14T00:43:38;100943.66;;;8.93;100.00
30967;BME280;17649;51.836;8.330;2024-02-14T00:46:39;100934.88;;;8.97;100.00
30967;BME280;17649;51.836;8.330;2024-02-14T00:49:39;100940.91;;;9.16;100.00
30967;BME280;17649;51.836;8.330;2024-02-14T00:52:41;100936.31;;;9.23;100.00
30967;BME280;17649;51.836;8.330;2024-02-14T00:55:41;100929.38;;;9.05;100.00
30967;BME280;17649;51.836;8.330;2024-02-14T00:58:42;100932.19;;;9.19;100.00
30967;BME280;17649;51.836;8.330;2024-02-14T01:01:42;100925.31;;;9.38;100.00
30967;BME280;17649;51.836;8.330;2024-02-14T01:04:42;100911.88;;;9.11;100.00
30967;BME280;17649;51.836;8.330;2024-02-14T01:07:43;100918.72;;;9.50;100.00
30967;BME280;17649;51.836;8.330;2024-02-14T01:10:43;100911.97;;;9.29;100.00
30967;BME280;17649;51.836;8.330;2024-02-14T01:13:44;100909.53;;;9.25;100.00
30967;BME280;17649;51.836;8.330;2024-02-14T01:16:45;100905.66;;;9.34;100.00
30967;BME280;17649;51.836;8.330;2024-02-14T01:19:45;100911.34;;;9.42;100.00
30967;BME280;17649;51.836;8.330;2024-02-14T01:22:46;100906.19;;;9.23;100.00
30967;BME280;17649;51.836;8.330;2024-02-14T01:25:46;100909.00;;;9.17;100.00
30967;BME280;17649;51.836;8.330;2024-02-14T01:28:46;100903.44;;;9.26;100.00
30967;BME280;17649;51.836;8.330;2024-02-14T01:31:47;100901.97;;;9.21;100.00
30967;BME280;17649;51.836;8.330;2024-02-14T01:34:47;100897.84;;;9.36;100.00
30967;BME280;17649;51.836;8.330;2024-02-14T01:37:47;100892.28;;;9.26;100.00
30967;BME280;17649;51.836;8.330;2024-02-14T01:40:48;100894.66;;;9.31;100.00
30967;BME280;17649;51.836;8.330;2024-02-14T01:43:49;100890.69;;;9.23;100.00
30967;BME280;17649;51.836;8.330;2024-02-14T01:46:50;100882.72;;;9.28;100.00
30967;BME280;17649;51.836;8.330;2024-02-14T01:49:53;100886.22;;;9.08;100.00
30967;BME280;17649;51.836;8.330;2024-02-14T01:52:53;100875.81;;;9.29;100.00
30967;BME280;17649;51.836;8.330;2024-02-14T01:55:53;100878.78;;;9.19;100.00
30967;BME280;17649;51.836;8.330;2024-02-14T01:58:54;100876.66;;;9.10;100.00
30967;BME280;17649;51.836;8.330;2024-02-14T02:01:54;100869.88;;;9.08;100.00
30967;BME280;17649;51.836;8.330;2024-02-14T02:04:54;100864.22;;;9.18;100.00
30967;BME280;17649;51.836;8.330;2024-02-14T02:07:55;100860.72;;;9.19;100.00
30967;BME280;17649;51.836;8.330;2024-02-14T02:10:55;100864.88;;;9.23;100.00
30967;BME280;17649;51.836;8.330;2024-02-14T02:13:56;100853.13;;;9.16;100.00
30967;BME280;17649;51.836;8.330;2024-02-14T02:16:56;100862.53;;;9.17;100.00
30967;BME280;17649;51.836;8.330;2024-02-14T02:19:57;100851.66;;;9.11;100.00
30967;BME280;17649;51.836;8.330;2024-02-14T02:22:58;100858.28;;;9.35;100.00
30967;BME280;17649;51.836;8.330;2024-02-14T02:25:59;100859.25;;;9.33;100.00
30967;BME280;17649;51.836;8.330;2024-02-14T02:28:59;100855.91;;;9.12;100.00
30967;BME280;17649;51.836;8.330;2024-02-14T02:32:00;100862.75;;;9.32;100.00
30967;BME280;17649;51.836;8.330;2024-02-14T02:35:00;100854.47;;;9.25;100.00
30967;BME280;17649;51.836;8.330;2024-02-14T02:38:01;100849.06;;;9.30;100.00
30967;BME280;17649;51.836;8.330;2024-02-14T02:41:03;100857.94;;;9.43;100.00
30967;BME280;17649;51.836;8.330;2024-02-14T02:44:06;100851.09;;;9.42;100.00
30967;BME280;17649;51.836;8.330;2024-02-14T02:47:07;100853.47;;;9.27;100.00
30967;BME280;17649;51.836;8.330;2024-02-14T02:50:07;100851.28;;;9.37;100.00
30967;BME280;17649;51.836;8.330;2024-02-14T02:53:08;100841.16;;;9.51;100.00
30967;BME280;17649;51.836;8.330;2024-02-14T02:56:08;100852.78;;;9.43;100.00
30967;BME280;17649;51.836;8.330;2024-02-14T02:59:08;100853.75;;;9.40;100.00
30967;BME280;17649;51.836;8.330;2024-02-14T03:02:09;100845.03;;;9.24;100.00
30967;BME280;17649;51.836;8.330;2024-02-14T03:05:12;100839.84;;;9.43;100.00
30967;BME280;17649;51.836;8.330;2024-02-14T03:08:18;100831.97;;;9.46;100.00
30967;BME280;17649;51.836;8.330;2024-02-14T03:11:19;100825.22;;;9.24;100.00
30967;BME280;17649;51.836;8.330;2024-02-14T03:14:20;100827.66;;;9.27;100.00
30967;BME280;17649;51.836;8.330;2024-02-14T03:17:20;100822.69;;;9.42;100.00
30967;BME280;17649;51.836;8.330;2024-02-14T03:20:20;100831.63;;;9.35;100.00
30967;BME280;17649;51.836;8.330;2024-02-14T03:23:21;100826.25;;;9.20;100.00
30967;BME280;17649;51.836;8.330;2024-02-14T03:26:22;100821.66;;;9.27;100.00
30967;BME280;17649;51.836;8.330;2024-02-14T03:29:23;100816.63;;;9.43;100.00
30967;BME280;17649;51.836;8.330;2024-02-14T03:32:23;100821.88;;;9.22;100.00
30967;BME280;17649;51.836;8.330;2024-02-14T03:35:24;100820.09;;;9.42;100.00
30967;BME280;17649;51.836;8.330;2024-02-14T03:38:27;100835.75;;;9.39;100.00
30967;BME280;17649;51.836;8.330;2024-02-14T03:41:28;100824.59;;;9.38;100.00
30967;BME280;17649;51.836;8.330;2024-02-14T03:44:28;100834.53;;;9.46;100.00
30967;BME280;17649;51.836;8.330;2024-02-14T03:47:29;100824.34;;;9.43;100.00
30967;BME280;17649;51.836;8.330;2024-02-14T03:50:32;100840.13;;;9.55;100.00
30967;BME280;17649;51.836;8.330;2024-02-14T03:53:33;100836.22;;;9.47;100.00
30967;BME280;17649;51.836;8.330;2024-02-14T03:56:33;100825.16;;;9.62;100.00
30967;BME280;17649;51.836;8.330;2024-02-14T03:59:37;100832.94;;;9.43;100.00
30967;BME280;17649;51.836;8.330;2024-02-14T04:02:39;100831.06;;;9.47;100.00
30967;BME280;17649;51.836;8.330;2024-02-14T04:05:40;100831.63;;;9.35;100.00
30967;BME280;17649;51.836;8.330;2024-02-14T04:08:40;100832.94;;;9.43;100.00
30967;BME280;17649;51.836;8.330;2024-02-14T04:11:40;100838.53;;;9.53;100.00
30967;BME280;17649;51.836;8.330;2024-02-14T04:14:40;100830.13;;;9.48;100.00
30967;BME280;17649;51.836;8.330;2024-02-14T04:17:41;100846.63;;;9.45;100.00
30967;BME280;17649;51.836;8.330;2024-02-14T04:20:41;100842.66;;;9.38;100.00
30967;BME280;17649;51.836;8.330;2024-02-14T04:23:43;100839.72;;;9.46;100.00
30967;BME280;17649;51.836;8.330;2024-02-14T04:26:43;100833.44;;;9.33;100.00
30967;BME280;17649;51.836;8.330;2024-02-14T04:29:46;100827.78;;;9.43;100.00
30967;BME280;17649;51.836;8.330;2024-02-14T04:32:47;100843.88;;;9.48;100.00
30967;BME280;17649;51.836;8.330;2024-02-14T04:35:49;100845.94;;;9.42;100.00
30967;BME280;17649;51.836;8.330;2024-02-14T04:38:50;100834.72;;;9.60;100.00
30967;BME280;17649;51.836;8.330;2024-02-14T04:41:51;100849.22;;;9.26;100.00
30967;BME280;17649;51.836;8.330;2024-02-14T04:44:53;100847.25;;;9.32;100.00
30967;BME280;17649;51.836;8.330;2024-02-14T04:47:53;100842.44;;;9.43;100.00
30967;BME280;17649;51.836;8.330;2024-02-14T04:50:55;100847.38;;;9.47;100.00
30967;BME280;17649;51.836;8.330;2024-02-14T04:53:59;100833.97;;;9.58;100.00
30967;BME280;17649;51.836;8.330;2024-02-14T04:56:59;100826.72;;;9.47;100.00
30967;BME280;17649;51.836;8.330;2024-02-14T05:00:00;100833.28;;;9.36;100.00
30967;BME280;17649;51.836;8.330;2024-02-14T05:03:00;100835.69;;;9.40;100.00
30967;BME280;17649;51.836;8.330;2024-02-14T05:06:01;100832.19;;;9.41;100.00
30967;BME280;17649;51.836;8.330;2024-02-14T05:09:02;100839.25;;;9.38;100.00
30967;BME280;17649;51.836;8.330;2024-02-14T05:12:03;100841.53;;;9.44;100.00
30967;BME280;17649;51.836;8.330;2024-02-14T05:15:04;100837.75;;;9.32;100.00
30967;BME280;17649;51.836;8.330;2024-02-14T05:18:05;100834.41;;;9.30;100.00
30967;BME280;17649;51.836;8.330;2024-02-14T05:21:06;100834.28;;;9.33;100.00
30967;BME280;17649;51.836;8.330;2024-02-14T05:24:10;100836.66;;;9.38;100.00
30967;BME280;17649;51.836;8.330;2024-02-14T05:27:10;100839.94;;;9.41;100.00
30967;BME280;17649;51.836;8.330;2024-02-14T05:30:11;100839.94;;;9.41;100.00
30967;BME280;17649;51.836;8.330;2024-02-14T05:33:12;100842.38;;;9.25;100.00
30967;BME280;17649;51.836;8.330;2024-02-14T05:36:12;100847.25;;;9.32;100.00
30967;BME280;17649;51.836;8.330;2024-02-14T05:39:13;100850.06;;;9.27;100.00
30967;BME280;17649;51.836;8.330;2024-02-14T05:42:14;100851.25;;;9.39;100.00
30967;BME280;17649;51.836;8.330;2024-02-14T05:45:16;100854.75;;;9.38;100.00
30967;BME280;17649;51.836;8.330;2024-02-14T05:48:16;100856.41;;;9.39;100.00
30967;BME280;17649;51.836;8.330;2024-02-14T05:51:16;100847.00;;;9.38;100.00
30967;BME280;17649;51.836;8.330;2024-02-14T05:54:17;100862.13;;;9.45;100.00
30967;BME280;17649;51.836;8.330;2024-02-14T05:57:17;100862.19;;;9.44;100.00
30967;BME280;17649;51.836;8.330;2024-02-14T06:00:21;100860.38;;;9.46;100.00
30967;BME280;17649;51.836;8.330;2024-02-14T06:03:22;100865.69;;;9.43;100.00
30967;BME280;17649;51.836;8.330;2024-02-14T06:06:23;100864.50;;;9.31;100.00
30967;BME280;17649;51.836;8.330;2024-02-14T06:09:23;100871.41;;;9.31;100.00
30967;BME280;17649;51.836;8.330;2024-02-14T06:12:24;100876.03;;;9.24;100.00
30967;BME280;17649;51.836;8.330;2024-02-14T06:15:25;100871.13;;;9.37;100.00
30967;BME280;17649;51.836;8.330;2024-02-14T06:18:25;100868.22;;;9.25;100.00
30967;BME280;17649;51.836;8.330;2024-02-14T06:21:27;100885.09;;;9.33;100.00
30967;BME280;17649;51.836;8.330;2024-02-14T06:24:27;100891.50;;;9.43;100.00
30967;BME280;17649;51.836;8.330;2024-02-14T06:27:27;100889.63;;;9.27;100.00
30967;BME280;17649;51.836;8.330;2024-02-14T06:30:28;100891.84;;;9.35;100.00
30967;BME280;17649;51.836;8.330;2024-02-14T06:33:28;100898.75;;;9.35;100.00
30967;BME280;17649;51.836;8.330;2024-02-14T06:36:29;100897.00;;;9.35;100.00
30967;BME280;17649;51.836;8.330;2024-02-14T06:39:29;100902.91;;;9.39;100.00
30967;BME280;17649;51.836;8.330;2024-02-14T06:42:30;100905.13;;;9.46;100.00
30967;BME280;17649;51.836;8.330;2024-02-14T06:45:30;100908.97;;;9.38;100.00
30967;BME280;17649;51.836;8.330;2024-02-14T06:48:31;100913.44;;;9.53;100.00
30967;BME280;17649;51.836;8.330;2024-02-14T06:51:31;100914.97;;;9.57;100.00
30967;BME280;17649;51.836;8.330;2024-02-14T06:54:31;100917.25;;;9.63;100.00
30967;BME280;17649;51.836;8.330;2024-02-14T06:57:32;100927.75;;;9.60;100.00
30967;BME280;17649;51.836;8.330;2024-02-14T07:00:33;100931.84;;;9.64;100.00
30967;BME280;17649;51.836;8.330;2024-02-14T07:03:33;100932.06;;;9.60;100.00
30967;BME280;17649;51.836;8.330;2024-02-14T07:06:34;100928.44;;;9.64;100.00
30967;BME280;17649;51.836;8.330;2024-02-14T07:09:34;100935.75;;;9.73;100.00
30967;BME280;17649;51.836;8.330;2024-02-14T07:12:38;100929.47;;;9.78;100.00
30967;BME280;17649;51.836;8.330;2024-02-14T07:15:39;100928.22;;;9.68;100.00
30967;BME280;17649;51.836;8.330;2024-02-14T07:18:40;100932.13;;;9.77;100.00
30967;BME280;17649;51.836;8.330;2024-02-14T07:21:40;100930.78;;;9.87;100.00
30967;BME280;17649;51.836;8.330;2024-02-14T07:24:40;100938.94;;;9.97;100.00
30967;BME280;17649;51.836;8.330;2024-02-14T07:27:40;100932.03;;;9.78;100.00
30967;BME280;17649;51.836;8.330;2024-02-14T07:30:41;100939.00;;;9.95;100.00
30967;BME280;17649;51.836;8.330;2024-02-14T07:33:41;100939.38;;;9.88;100.00
30967;BME280;17649;51.836;8.330;2024-02-14T07:36:43;100949.22;;;9.98;100.00
30967;BME280;17649;51.836;8.330;2024-02-14T07:39:46;100943.97;;;10.00;100.00
30967;BME280;17649;51.836;8.330;2024-02-14T07:42:48;100951.50;;;10.04;100.00
30967;BME280;17649;51.836;8.330;2024-02-14T07:45:48;100955.91;;;10.02;100.00
30967;BME280;17649;51.836;8.330;2024-02-14T07:48:48;100967.44;;;9.95;100.00
30967;BME280;17649;51.836;8.330;2024-02-14T07:51:49;100959.34;;;10.03;100.00
30967;BME280;17649;51.836;8.330;2024-02-14T07:54:53;100972.53;;;9.97;100.00
30967;BME280;17649;51.836;8.330;2024-02-14T07:58:03;100967.75;;;9.89;100.00
30967;BME280;17649;51.836;8.330;2024-02-14T08:01:04;100977.81;;;9.76;100.00
30967;BME280;17649;51.836;8.330;2024-02-14T08:04:04;100981.72;;;9.85;100.00
30967;BME280;17649;51.836;8.330;2024-02-14T08:07:05;100976.47;;;9.86;100.00
30967;BME280;17649;51.836;8.330;2024-02-14T08:10:05;100974.66;;;9.89;100.00
30967;BME280;17649;51.836;8.330;2024-02-14T08:13:06;100981.53;;;10.07;100.00
30967;BME280;17649;51.836;8.330;2024-02-14T08:16:06;100972.03;;;10.07;100.00
30967;BME280;17649;51.836;8.330;2024-02-14T08:19:07;100982.78;;;10.17;100.00
30967;BME280;17649;51.836;8.330;2024-02-14T08:22:07;100985.66;;;10.11;100.00
30967;BME280;17649;51.836;8.330;2024-02-14T08:25:08;100983.47;;;10.21;100.00
30967;BME280;17649;51.836;8.330;2024-02-14T08:28:09;100988.03;;;9.97;100.00
30967;BME280;17649;51.836;8.330;2024-02-14T08:31:10;100997.41;;;10.18;100.00
30967;BME280;17649;51.836;8.330;2024-02-14T08:34:12;100990.63;;;10.15;100.00
30967;BME280;17649;51.836;8.330;2024-02-14T08:37:12;100983.91;;;10.11;100.00
30967;BME280;17649;51.836;8.330;2024-02-14T08:40:13;100988.53;;;10.24;100.00
30967;BME280;17649;51.836;8.330;2024-02-14T08:43:13;100988.88;;;10.16;100.00
30967;BME280;17649;51.836;8.330;2024-02-14T08:46:14;100989.94;;;10.31;100.00
30967;BME280;17649;51.836;8.330;2024-02-14T08:49:19;100990.53;;;10.36;100.00
30967;BME280;17649;51.836;8.330;2024-02-14T08:52:19;100988.63;;;10.39;100.00
30967;BME280;17649;51.836;8.330;2024-02-14T08:55:19;100983.28;;;10.25;100.00
30967;BME280;17649;51.836;8.330;2024-02-14T08:58:19;100992.44;;;10.32;100.00
30967;BME280;17649;51.836;8.330;2024-02-14T09:01:20;100991.03;;;10.25;100.00
30967;BME280;17649;51.836;8.330;2024-02-14T09:04:21;100992.66;;;10.28;100.00
30967;BME280;17649;51.836;8.330;2024-02-14T09:07:22;101000.44;;;10.28;100.00
30967;BME280;17649;51.836;8.330;2024-02-14T09:10:22;101002.72;;;10.34;100.00
30967;BME280;17649;51.836;8.330;2024-02-14T09:13:23;101010.38;;;10.35;100.00
30967;BME280;17649;51.836;8.330;2024-02-14T09:16:23;101011.91;;;10.39;100.00
30967;BME280;17649;51.836;8.330;2024-02-14T09:19:24;101006.47;;;10.45;100.00
30967;BME280;17649;51.836;8.330;2024-02-14T09:22:25;101005.78;;;10.42;100.00
30967;BME280;17649;51.836;8.330;2024-02-14T09:25:25;101006.03;;;10.72;100.00
30967;BME280;17649;51.836;8.330;2024-02-14T09:28:26;101009.22;;;10.94;100.00
30967;BME280;17649;51.836;8.330;2024-02-14T09:31:26;101000.16;;;11.03;100.00
30967;BME280;17649;51.836;8.330;2024-02-14T09:34:26;101007.22;;;10.99;100.00
30967;BME280;17649;51.836;8.330;2024-02-14T09:37:27;100996.19;;;10.96;100.00
30967;BME280;17649;51.836;8.330;2024-02-14T09:40:28;100998.44;;;11.19;100.00
30967;BME280;17649;51.836;8.330;2024-02-14T09:43:36;101002.41;;;11.42;100.00
30967;BME280;17649;51.836;8.330;2024-02-14T09:46:38;101005.38;;;11.52;100.00
30967;BME280;17649;51.836;8.330;2024-02-14T09:49:39;101000.78;;;11.73;100.00
30967;BME280;17649;51.836;8.330;2024-02-14T09:52:41;100987.25;;;11.68;100.00
30967;BME280;17649;51.836;8.330;2024-02-14T09:55:42;100994.66;;;11.42;100.00
30967;BME280;17649;51.836;8.330;2024-02-14T09:58:43;100992.94;;;11.74;100.00
30967;BME280;17649;51.836;8.330;2024-02-14T10:01:44;100992.94;;;11.74;100.00
30967;BME280;17649;51.836;8.330;2024-02-14T10:04:46;100999.25;;;11.86;100.00
30967;BME280;17649;51.836;8.330;2024-02-14T10:07:46;101007.72;;;11.72;100.00
30967;BME280;17649;51.836;8.330;2024-02-14T10:10:47;101013.53;;;11.77;100.00
30967;BME280;17649;51.836;8.330;2024-02-14T10:13:47;101021.25;;;11.94;100.00
30967;BME280;17649;51.836;8.330;2024-02-14T10:16:50;101007.19;;;11.99;100.00
30967;BME280;17649;51.836;8.330;2024-02-14T10:20:00;101026.19;;;12.15;100.00
30967;BME280;17649;51.836;8.330;2024-02-14T10:23:01;101025.44;;;12.29;100.00
30967;BME280;17649;51.836;8.330;2024-02-14T10:26:04;101018.22;;;12.18;100.00
30967;BME280;17649;51.836;8.330;2024-02-14T10:29:06;101018.13;;;12.19;100.00
30967;BME280;17649;51.836;8.330;2024-02-14T10:32:06;101032.97;;;12.02;100.00
30967;BME280;17649;51.836;8.330;2024-02-14T10:35:07;101034.16;;;11.96;100.00
30967;BME280;17649;51.836;8.330;2024-02-14T10:38:09;101040.06;;;11.98;100.00
30967;BME280;17649;51.836;8.330;2024-02-14T10:41:10;101040.81;;;12.16;100.00
30967;BME280;17649;51.836;8.330;2024-02-14T10:44:12;101027.84;;;12.16;100.00
30967;BME280;17649;51.836;8.330;2024-02-14T10:47:14;101031.91;;;12.06;100.00
30967;BME280;17649;51.836;8.330;2024-02-14T10:50:24;101047.19;;;12.26;100.00
30967;BME280;17649;51.836;8.330;2024-02-14T10:53:25;101035.16;;;12.09;100.00
30967;BME280;17649;51.836;8.330;2024-02-14T10:56:28;101040.59;;;12.20;100.00
30967;BME280;17649;51.836;8.330;2024-02-14T10:59:30;101031.81;;;12.23;100.00
30967;BME280;17649;51.836;8.330;2024-02-14T11:02:31;101038.97;;;12.34;100.00
30967;BME280;17649;51.836;8.330;2024-02-14T11:05:45;101026.19;;;12.31;100.00
30967;BME280;17649;51.836;8.330;2024-02-14T11:09:02;101030.03;;;12.39;100.00
30967;BME280;17649;51.836;8.330;2024-02-14T11:12:08;101033.38;;;12.26;100.00
30967;BME280;17649;51.836;8.330;2024-02-14T11:15:20;101031.81;;;12.07;100.00
30967;BME280;17649;51.836;8.330;2024-02-14T11:18:28;101036.06;;;12.08;100.00
30967;BME280;17649;51.836;8.330;2024-02-14T11:21:35;101035.31;;;12.22;100.00
30967;BME280;17649;51.836;8.330;2024-02-14T11:24:36;101037.84;;;12.08;100.00
30967;BME280;17649;51.836;8.330;2024-02-14T11:27:44;101043.69;;;12.27;100.00
30967;BME280;17649;51.836;8.330;2024-02-14T11:30:45;101043.78;;;12.10;100.00
30967;BME280;17649;51.836;8.330;2024-02-14T11:33:45;101044.16;;;12.02;100.00
30967;BME280;17649;51.836;8.330;2024-02-14T11:36:46;101045.84;;;12.03;100.00
30967;BME280;17649;51.836;8.330;2024-02-14T11:39:46;101050.63;;;12.27;100.00
30967;BME280;17649;51.836;8.330;2024-02-14T11:42:47;101051.03;;;11.87;100.00
30967;BME280;17649;51.836;8.330;2024-02-14T11:45:47;101042.41;;;11.87;100.00
30967;BME280;17649;51.836;8.330;2024-02-14T11:48:52;101052.22;;;11.98;100.00
30967;BME280;17649;51.836;8.330;2024-02-14T11:51:53;101044.88;;;12.06;100.00
30967;BME280;17649;51.836;8.330;2024-02-14T11:54:59;101046.38;;;12.10;100.00
30967;BME280;17649;51.836;8.330;2024-02-14T11:58:00;101049.34;;;11.86;100.00
30967;BME280;17649;51.836;8.330;2024-02-14T12:01:03;101055.72;;;11.97;100.00
30967;BME280;17649;51.836;8.330;2024-02-14T12:04:05;101045.28;;;12.14;100.00
30967;BME280;17649;51.836;8.330;2024-02-14T12:07:09;101048.19;;;11.92;100.00
30967;BME280;17649;51.836;8.330;2024-02-14T12:10:09;101050.00;;;11.90;100.00
30967;BME280;17649;51.836;8.330;2024-02-14T12:13:14;101057.84;;;12.21;100.00
30967;BME280;17649;51.836;8.330;2024-02-14T12:16:14;101056.81;;;12.24;100.00
30967;BME280;17649;51.836;8.330;2024-02-14T12:19:16;101057.22;;;12.16;100.00
30967;BME280;17649;51.836;8.330;2024-02-14T12:22:16;101055.72;;;12.28;100.00
30967;BME280;17649;51.836;8.330;2024-02-14T12:25:20;101065.69;;;12.36;100.00
30967;BME280;17649;51.836;8.330;2024-02-14T12:28:21;101064.59;;;12.40;100.00
30967;BME280;17649;51.836;8.330;2024-02-14T12:31:23;101066.94;;;12.29;100.00
30967;BME280;17649;51.836;8.330;2024-02-14T12:34:24;101061.38;;;12.66;100.00
30967;BME280;17649;51.836;8.330;2024-02-14T12:37:27;101061.19;;;12.69;100.00
30967;BME280;17649;51.836;8.330;2024-02-14T12:40:28;101054.53;;;12.65;100.00
30967;BME280;17649;51.836;8.330;2024-02-14T12:43:29;101053.28;;;12.41;100.00
30967;BME280;17649;51.836;8.330;2024-02-14T12:46:30;101061.34;;;12.36;100.00
30967;BME280;17649;51.836;8.330;2024-02-14T12:49:30;101058.91;;;12.17;100.00
30967;BME280;17649;51.836;8.330;2024-02-14T12:52:33;101063.59;;;12.27;100.00
30967;BME280;17649;51.836;8.330;2024-02-14T12:55:35;101057.56;;;12.26;100.00
30967;BME280;17649;51.836;8.330;2024-02-14T12:58:36;101048.19;;;12.39;100.00
30967;BME280;17649;51.836;8.330;2024-02-14T13:01:36;101051.19;;;12.32;100.00
30967;BME280;17649;51.836;8.330;2024-02-14T13:04:37;101051.94;;;12.34;100.00
30967;BME280;17649;51.836;8.330;2024-02-14T13:07:37;101046.34;;;12.41;100.00
30967;BME280;17649;51.836;8.330;2024-02-14T13:10:38;101046.81;;;12.48;100.00
30967;BME280;17649;51.836;8.330;2024-02-14T13:13:38;101049.00;;;12.56;100.00
30967;BME280;17649;51.836;8.330;2024-02-14T13:16:40;101040.66;;;12.50;100.00
30967;BME280;17649;51.836;8.330;2024-02-14T13:19:40;101036.91;;;12.70;100.00
30967;BME280;17649;51.836;8.330;2024-02-14T13:22:44;101028.38;;;12.68;100.00
30967;BME280;17649;51.836;8.330;2024-02-14T13:25:44;101031.22;;;12.94;100.00
30967;BME280;17649;51.836;8.330;2024-02-14T13:28:44;101022.47;;;12.80;100.00
30967;BME280;17649;51.836;8.330;2024-02-14T13:31:45;101029.44;;;12.80;100.00
30967;BME280;17649;51.836;8.330;2024-02-14T13:34:45;101032.94;;;12.79;100.00
30967;BME280;17649;51.836;8.330;2024-02-14T13:37:45;101029.69;;;12.75;100.00
30967;BME280;17649;51.836;8.330;2024-02-14T13:40:46;101033.47;;;12.70;100.00
30967;BME280;17649;51.836;8.330;2024-02-14T13:43:46;101032.03;;;12.80;100.00
30967;BME280;17649;51.836;8.330;2024-02-14T13:46:47;101024.03;;;12.69;100.00
30967;BME280;17649;51.836;8.330;2024-02-14T13:49:50;101032.50;;;12.87;100.00
30967;BME280;17649;51.836;8.330;2024-02-14T13:52:51;101024.31;;;12.78;100.00
30967;BME280;17649;51.836;8.330;2024-02-14T13:55:52;101031.03;;;12.82;100.00
30967;BME280;17649;51.836;8.330;2024-02-14T13:58:53;101044.94;;;12.81;100.00
30967;BME280;17649;51.836;8.330;2024-02-14T14:01:53;101044.81;;;13.13;100.00
30967;BME280;17649;51.836;8.330;2024-02-14T14:04:53;101042.72;;;12.90;100.00
30967;BME280;17649;51.836;8.330;2024-02-14T14:07:55;101026.84;;;12.94;100.00
30967;BME280;17649;51.836;8.330;2024-02-14T14:10:57;101030.75;;;12.87;100.00
30967;BME280;17649;51.836;8.330;2024-02-14T14:13:57;101028.66;;;12.78;100.00
30967;BME280;17649;51.836;8.330;2024-02-14T14:16:57;101029.91;;;12.87;100.00
30967;BME280;17649;51.836;8.330;2024-02-14T14:19:58;101028.97;;;12.88;100.00
30967;BME280;17649;51.836;8.330;2024-02-14T14:23:00;101025.63;;;12.86;100.00
30967;BME280;17649;51.836;8.330;2024-02-14T14:26:00;101033.69;;;13.11;100.00
30967;BME280;17649;51.836;8.330;2024-02-14T14:29:01;101021.09;;;13.33;100.00
30967;BME280;17649;51.836;8.330;2024-02-14T14:32:02;101023.16;;;13.57;100.00
30967;BME280;17649;51.836;8.330;2024-02-14T14:35:02;101028.06;;;13.76;100.00
30967;BME280;17649;51.836;8.330;2024-02-14T14:38:03;101019.41;;;13.75;100.00
30967;BME280;17649;51.836;8.330;2024-02-14T14:41:04;101020.81;;;13.52;100.00
30967;BME280;17649;51.836;8.330;2024-02-14T14:44:04;101023.59;;;13.21;100.00
30967;BME280;17649;51.836;8.330;2024-02-14T14:47:04;101031.78;;;12.99;100.00
30967;BME280;17649;51.836;8.330;2024-02-14T14:50:05;101037.91;;;12.98;100.00
30967;BME280;17649;51.836;8.330;2024-02-14T14:53:07;101017.28;;;12.80;100.00
30967;BME280;17649;51.836;8.330;2024-02-14T14:56:07;101024.72;;;12.87;100.00
30967;BME280;17649;51.836;8.330;2024-02-14T14:59:08;101032.69;;;12.83;100.00
30967;BME280;17649;51.836;8.330;2024-02-14T15:02:09;101018.13;;;12.81;100.00
30967;BME280;17649;51.836;8.330;2024-02-14T15:05:10;101011.13;;;12.67;100.00
30967;BME280;17649;51.836;8.330;2024-02-14T15:08:13;101032.88;;;12.50;100.00
30967;BME280;17649;51.836;8.330;2024-02-14T15:11:17;101034.03;;;12.45;100.00
30967;BME280;17649;51.836;8.330;2024-02-14T15:14:19;101045.50;;;12.41;100.00
30967;BME280;17649;51.836;8.330;2024-02-14T15:17:20;101029.78;;;12.28;100.00
30967;BME280;17649;51.836;8.330;2024-02-14T15:20:21;101030.97;;;12.22;100.00
30967;BME280;17649;51.836;8.330;2024-02-14T15:23:21;101025.44;;;12.29;100.00
30967;BME280;17649;51.836;8.330;2024-02-14T15:26:21;101032.81;;;12.20;100.00
30967;BME280;17649;51.836;8.330;2024-02-14T15:29:24;101028.94;;;12.28;100.00
30967;BME280;17649;51.836;8.330;2024-02-14T15:32:43;101023.41;;;12.18;100.00
30967;BME280;17649;51.836;8.330;2024-02-14T15:36:02;101029.44;;;12.18;100.00
30967;BME280;17649;51.836;8.330;2024-02-14T15:39:02;101027.09;;;12.14;100.00
30967;BME280;17649;51.836;8.330;2024-02-14T15:42:03;101028.03;;;12.13;100.00